createdAt,value
2023-04-12T00:04:28.810Z,61.49
2023-04-12T00:14:50.386Z,61.53
2023-04-12T00:25:12.361Z,61.45
2023-04-12T00:35:33.701Z,61.80
2023-04-12T00:45:58.010Z,61.51
2023-04-12T00:56:24.037Z,61.84
2023-04-12T01:07:10.509Z,61.47
2023-04-12T01:17:38.152Z,60.91
2023-04-12T01:28:07.290Z,61.61
2023-04-12T01:38:29.287Z,61.62
2023-04-12T01:48:52.609Z,61.92
2023-04-12T01:59:16.277Z,61.85
2023-04-12T02:09:41.095Z,61.32
2023-04-12T02:20:03.868Z,61.19
2023-04-12T02:30:25.418Z,61.84
2023-04-12T02:40:48.142Z,61.16
2023-04-12T02:51:12.362Z,61.42
2023-04-12T03:01:39.474Z,61.28
2023-04-12T03:12:27.650Z,61.49
2023-04-12T03:23:07.380Z,61.40
2023-04-12T03:33:32.200Z,61.10
2023-04-12T03:43:57.649Z,61.15
2023-04-12T03:54:19.996Z,61.93
2023-04-12T04:04:51.792Z,60.90
2023-04-12T04:15:20.208Z,61.62
2023-04-12T04:25:42.414Z,61.23
2023-04-12T04:36:08.199Z,61.83
2023-04-12T04:46:32.437Z,61.27
2023-04-12T04:56:54.281Z,61.62
2023-04-12T05:07:17.346Z,61.67
2023-04-12T05:17:41.192Z,62.13
2023-04-12T05:28:02.942Z,61.90
2023-04-12T05:38:24.205Z,61.63
2023-04-12T05:48:50.031Z,61.85
2023-04-12T05:59:12.579Z,61.95
2023-04-12T06:09:34.361Z,61.70
2023-04-12T06:19:55.693Z,62.16
2023-04-12T06:30:17.241Z,62.21
2023-04-12T06:40:38.451Z,61.96
2023-04-12T06:50:59.406Z,62.01
2023-04-12T07:01:20.888Z,61.73
2023-04-12T07:11:42.005Z,61.60
2023-04-12T07:22:03.088Z,61.66
2023-04-12T07:32:24.316Z,61.12
2023-04-12T07:42:46.015Z,61.11
2023-04-12T07:53:42.367Z,61.21
2023-04-12T08:04:03.856Z,60.91
2023-04-12T08:14:25.779Z,60.56
2023-04-12T08:24:47.075Z,60.88
2023-04-12T08:35:09.778Z,60.52
2023-04-12T08:45:32.558Z,59.95
2023-04-12T08:55:54.237Z,60.45
2023-04-12T09:06:15.879Z,60.35
2023-04-12T09:16:42.030Z,60.03
2023-04-12T09:27:05.246Z,59.87
2023-04-12T09:37:26.557Z,59.40
2023-04-12T09:47:47.891Z,60.05
2023-04-12T09:58:10.075Z,59.34
2023-04-12T10:08:32.102Z,59.47
2023-04-12T10:18:55.358Z,59.50
2023-04-12T10:29:37.294Z,59.62
2023-04-12T10:39:58.588Z,59.29
2023-04-12T10:50:24.675Z,58.89
2023-04-12T11:00:58.797Z,59.17
2023-04-12T11:11:23.637Z,59.34
2023-04-12T11:21:44.977Z,58.88
2023-04-12T11:32:07.731Z,59.22
2023-04-12T11:42:29.641Z,59.30
2023-04-12T11:52:50.707Z,59.90
2023-04-12T12:03:12.825Z,59.32
2023-04-12T12:13:51.089Z,59.10
2023-04-12T12:24:14.841Z,59.57
2023-04-12T12:34:35.953Z,60.03
2023-04-12T12:44:57.031Z,59.89
2023-04-12T12:55:19.049Z,59.76
2023-04-12T13:05:40.068Z,59.87
2023-04-12T13:16:01.407Z,59.24
2023-04-12T13:26:25.975Z,59.77
2023-04-12T13:36:47.457Z,59.47
2023-04-12T13:47:08.707Z,59.47
2023-04-12T13:57:29.890Z,60.23
2023-04-12T14:07:52.739Z,60.38
2023-04-12T14:18:13.927Z,60.68
2023-04-12T14:28:35.678Z,60.11
2023-04-12T14:38:57.213Z,60.28
2023-04-12T14:49:18.714Z,60.66
2023-04-12T14:59:40.230Z,60.90
2023-04-12T15:10:01.758Z,60.61
2023-04-12T15:20:23.235Z,60.49
2023-04-12T15:30:44.594Z,60.66
2023-04-12T15:41:06.221Z,60.87
2023-04-12T15:51:28.530Z,60.50
2023-04-12T16:01:49.995Z,60.79
2023-04-12T16:12:11.849Z,61.53
2023-04-12T16:22:33.553Z,61.30
2023-04-12T16:32:54.913Z,61.15
2023-04-12T16:43:17.680Z,60.77
2023-04-12T16:53:38.901Z,61.40
2023-04-12T17:04:00.663Z,61.34
2023-04-12T17:14:22.682Z,60.55
2023-04-12T17:24:43.869Z,61.09
2023-04-12T17:35:07.395Z,60.92
2023-04-12T17:45:28.903Z,60.95
2023-04-12T17:55:50.830Z,61.04
2023-04-12T18:06:14.000Z,61.64
2023-04-12T18:16:35.339Z,62.00
2023-04-12T18:26:59.425Z,61.87
2023-04-12T18:37:20.975Z,62.03
2023-04-12T18:47:42.579Z,61.68
2023-04-12T18:58:03.512Z,61.79
2023-04-12T19:08:25.224Z,62.30
2023-04-12T19:18:46.745Z,62.22
2023-04-12T19:29:07.748Z,62.70
2023-04-12T19:39:29.715Z,62.72
2023-04-12T19:49:51.475Z,62.96
2023-04-12T20:00:19.799Z,62.58
2023-04-12T20:10:41.013Z,62.68
2023-04-12T20:21:02.305Z,63.28
2023-04-12T20:31:23.696Z,63.79
2023-04-12T20:41:50.259Z,63.52
2023-04-12T20:52:11.787Z,63.20
2023-04-12T21:02:33.015Z,63.91
2023-04-12T21:12:55.071Z,63.72
2023-04-12T21:23:19.375Z,63.52
2023-04-12T21:33:40.740Z,63.53
2023-04-12T21:44:02.058Z,63.89
2023-04-12T21:54:23.650Z,63.72
2023-04-12T22:04:45.173Z,64.35
2023-04-12T22:15:08.975Z,64.36
2023-04-12T22:25:30.485Z,63.81
2023-04-12T22:35:52.114Z,64.71
2023-04-12T22:46:18.861Z,64.34
2023-04-12T22:56:42.017Z,64.35
2023-04-12T23:07:02.992Z,64.50
2023-04-12T23:17:24.262Z,64.68
2023-04-12T23:27:46.571Z,65.34
2023-04-12T23:38:08.936Z,66.05
2023-04-12T23:48:31.750Z,65.85
2023-04-12T23:58:52.613Z,65.47
